sensor_id;sensor_type;location;lat;lon;timestamp;temperature;humidity
58983;DHT22;44771;49.982;8.560;2022-10-16T03:38:28;14.50;99.90
58983;DHT22;44771;49.982;8.560;2022-10-16T03:43:30;14.50;99.90
58983;DHT22;44771;49.982;8.560;2022-10-16T03:48:31;14.50;99.90
58983;DHT22;44771;49.982;8.560;2022-10-16T03:53:35;14.50;99.90
58983;DHT22;44771;49.982;8.560;2022-10-16T03:58:36;14.50;99.90
58983;DHT22;44771;49.982;8.560;2022-10-16T04:03:38;14.60;99.90
58983;DHT22;44771;49.982;8.560;2022-10-16T04:08:43;14.60;99.90
58983;DHT22;44771;49.982;8.560;2022-10-16T04:13:45;14.60;99.90
58983;DHT22;44771;49.982;8.560;2022-10-16T04:18:46;14.60;99.90
58983;DHT22;44771;49.982;8.560;2022-10-16T04:23:49;14.70;99.90
58983;DHT22;44771;49.982;8.560;2022-10-16T04:28:51;14.60;99.90
58983;DHT22;44771;49.982;8.560;2022-10-16T04:33:53;14.60;99.90
58983;DHT22;44771;49.982;8.560;2022-10-16T04:38:56;14.60;99.90
58983;DHT22;44771;49.982;8.560;2022-10-16T04:43:58;14.60;99.90
58983;DHT22;44771;49.982;8.560;2022-10-16T04:49:00;14.50;99.90
58983;DHT22;44771;49.982;8.560;2022-10-16T04:54:03;14.50;99.90
58983;DHT22;44771;49.982;8.560;2022-10-16T04:59:04;14.50;99.90
58983;DHT22;44771;49.982;8.560;2022-10-16T05:04:06;14.50;99.90
58983;DHT22;44771;49.982;8.560;2022-10-16T05:09:10;14.50;99.90
58983;DHT22;44771;49.982;8.560;2022-10-16T05:14:12;14.50;99.90
58983;DHT22;44771;49.982;8.560;2022-10-16T05:19:13;14.50;99.90
58983;DHT22;44771;49.982;8.560;2022-10-16T05:24:29;14.50;99.90
58983;DHT22;44771;49.982;8.560;2022-10-16T05:29:31;14.50;99.90
58983;DHT22;44771;49.982;8.560;2022-10-16T05:34:34;14.50;99.90
58983;DHT22;44771;49.982;8.560;2022-10-16T05:39:37;14.50;99.90
58983;DHT22;44771;49.982;8.560;2022-10-16T05:44:39;14.30;99.90
58983;DHT22;44771;49.982;8.560;2022-10-16T05:49:41;14.30;99.90
58983;DHT22;44771;49.982;8.560;2022-10-16T05:54:44;14.30;99.90
58983;DHT22;44771;49.982;8.560;2022-10-16T05:59:46;14.30;99.90
58983;DHT22;44771;49.982;8.560;2022-10-16T06:04:47;14.30;99.90
58983;DHT22;44771;49.982;8.560;2022-10-16T06:09:51;14.30;99.90
58983;DHT22;44771;49.982;8.560;2022-10-16T06:14:53;14.30;99.90
58983;DHT22;44771;49.982;8.560;2022-10-16T06:19:55;14.30;99.90
58983;DHT22;44771;49.982;8.560;2022-10-16T06:25:00;14.30;99.90
58983;DHT22;44771;49.982;8.560;2022-10-16T06:30:02;14.30;99.90
58983;DHT22;44771;49.982;8.560;2022-10-16T06:35:04;14.40;99.90
58983;DHT22;44771;49.982;8.560;2022-10-16T06:40:08;14.40;99.90
58983;DHT22;44771;49.982;8.560;2022-10-16T06:45:10;14.50;99.90
58983;DHT22;44771;49.982;8.560;2022-10-16T06:50:12;14.50;99.90
58983;DHT22;44771;49.982;8.560;2022-10-16T06:55:15;14.60;99.90
58983;DHT22;44771;49.982;8.560;2022-10-16T07:00:17;14.70;99.90
58983;DHT22;44771;49.982;8.560;2022-10-16T07:05:19;14.70;99.90
58983;DHT22;44771;49.982;8.560;2022-10-16T07:10:22;14.80;99.90
58983;DHT22;44771;49.982;8.560;2022-10-16T07:15:24;14.90;99.90
58983;DHT22;44771;49.982;8.560;2022-10-16T07:20:26;14.90;99.90
58983;DHT22;44771;49.982;8.560;2022-10-16T07:25:29;15.00;99.90
58983;DHT22;44771;49.982;8.560;2022-10-16T07:30:34;15.00;99.90
58983;DHT22;44771;49.982;8.560;2022-10-16T07:35:36;14.90;99.90
58983;DHT22;44771;49.982;8.560;2022-10-16T07:40:41;14.90;99.90
58983;DHT22;44771;49.982;8.560;2022-10-16T07:45:47;14.90;99.90
58983;DHT22;44771;49.982;8.560;2022-10-16T07:50:49;14.90;99.90
58983;DHT22;44771;49.982;8.560;2022-10-16T07:55:56;14.90;99.90
58983;DHT22;44771;49.982;8.560;2022-10-16T08:00:58;15.00;99.90
58983;DHT22;44771;49.982;8.560;2022-10-16T08:06:01;15.00;99.90
58983;DHT22;44771;49.982;8.560;2022-10-16T08:11:05;15.00;99.90
58983;DHT22;44771;49.982;8.560;2022-10-16T08:16:07;15.00;99.90
58983;DHT22;44771;49.982;8.560;2022-10-16T08:21:13;15.10;99.90
58983;DHT22;44771;49.982;8.560;2022-10-16T08:26:23;15.10;99.90
58983;DHT22;44771;49.982;8.560;2022-10-16T08:31:25;15.20;99.90
58983;DHT22;44771;49.982;8.560;2022-10-16T08:36:27;15.20;99.90
58983;DHT22;44771;49.982;8.560;2022-10-16T08:46:58;15.10;99.90
58983;DHT22;44771;49.982;8.560;2022-10-16T08:57:24;15.20;99.90
58983;DHT22;44771;49.982;8.560;2022-10-16T09:02:31;15.30;99.90
58983;DHT22;44771;49.982;8.560;2022-10-16T09:07:40;15.30;99.90
58983;DHT22;44771;49.982;8.560;2022-10-16T09:12:50;15.30;99.90
58983;DHT22;44771;49.982;8.560;2022-10-16T09:17:58;15.40;99.90
58983;DHT22;44771;49.982;8.560;2022-10-16T09:23:12;15.40;99.90
58983;DHT22;44771;49.982;8.560;2022-10-16T09:28:17;15.50;99.90
58983;DHT22;44771;49.982;8.560;2022-10-16T09:33:22;15.50;99.90
58983;DHT22;44771;49.982;8.560;2022-10-16T09:38:29;15.50;99.90
58983;DHT22;44771;49.982;8.560;2022-10-16T09:43:49;15.60;99.90
58983;DHT22;44771;49.982;8.560;2022-10-16T10:05:32;16.20;99.90
58983;DHT22;44771;49.982;8.560;2022-10-16T10:10:56;16.30;99.90
58983;DHT22;44771;49.982;8.560;2022-10-16T10:21:22;16.10;99.90
58983;DHT22;44771;49.982;8.560;2022-10-16T10:26:57;16.10;99.90
58983;DHT22;44771;49.982;8.560;2022-10-16T10:32:11;16.10;99.90
58983;DHT22;44771;49.982;8.560;2022-10-16T10:37:50;16.40;99.90
58983;DHT22;44771;49.982;8.560;2022-10-16T10:43:03;16.70;99.90
58983;DHT22;44771;49.982;8.560;2022-10-16T11:26:20;18.10;99.90
58983;DHT22;44771;49.982;8.560;2022-10-16T11:31:28;18.50;99.90
58983;DHT22;44771;49.982;8.560;2022-10-16T11:36:35;18.40;99.90
58983;DHT22;44771;49.982;8.560;2022-10-16T11:41:51;18.30;99.90
58983;DHT22;44771;49.982;8.560;2022-10-16T11:47:05;18.00;99.90
58983;DHT22;44771;49.982;8.560;2022-10-16T11:52:36;17.90;99.90
58983;DHT22;44771;49.982;8.560;2022-10-16T11:57:45;18.10;99.90
58983;DHT22;44771;49.982;8.560;2022-10-16T12:02:56;18.40;99.90
58983;DHT22;44771;49.982;8.560;2022-10-16T12:08:10;18.60;99.90
58983;DHT22;44771;49.982;8.560;2022-10-16T12:13:34;19.10;99.90
58983;DHT22;44771;49.982;8.560;2022-10-16T12:18:36;18.90;99.90
58983;DHT22;44771;49.982;8.560;2022-10-16T12:23:46;19.10;99.90
58983;DHT22;44771;49.982;8.560;2022-10-16T12:28:51;19.30;99.90
58983;DHT22;44771;49.982;8.560;2022-10-16T12:33:57;19.50;99.90
58983;DHT22;44771;49.982;8.560;2022-10-16T12:39:00;19.30;99.90
58983;DHT22;44771;49.982;8.560;2022-10-16T12:44:04;19.00;99.90
58983;DHT22;44771;49.982;8.560;2022-10-16T12:49:19;18.70;99.90
58983;DHT22;44771;49.982;8.560;2022-10-16T12:54:26;18.40;99.90
58983;DHT22;44771;49.982;8.560;2022-10-16T12:59:38;18.30;99.90
58983;DHT22;44771;49.982;8.560;2022-10-16T13:04:56;18.20;99.90
58983;DHT22;44771;49.982;8.560;2022-10-16T13:10:12;18.20;99.90
58983;DHT22;44771;49.982;8.560;2022-10-16T13:15:27;18.10;99.90
58983;DHT22;44771;49.982;8.560;2022-10-16T13:20:35;18.10;99.90
58983;DHT22;44771;49.982;8.560;2022-10-16T13:46:45;18.20;99.90
58983;DHT22;44771;49.982;8.560;2022-10-16T13:52:01;18.20;99.90
58983;DHT22;44771;49.982;8.560;2022-10-16T14:07:37;18.10;99.90
58983;DHT22;44771;49.982;8.560;2022-10-16T14:18:46;18.00;99.90
58983;DHT22;44771;49.982;8.560;2022-10-16T14:24:01;18.00;99.90
58983;DHT22;44771;49.982;8.560;2022-10-16T14:29:18;18.10;99.90
58983;DHT22;44771;49.982;8.560;2022-10-16T14:34:31;18.20;99.90
58983;DHT22;44771;49.982;8.560;2022-10-16T14:39:35;18.20;99.90
58983;DHT22;44771;49.982;8.560;2022-10-16T14:44:40;18.40;99.90
58983;DHT22;44771;49.982;8.560;2022-10-16T14:49:42;18.50;99.90
58983;DHT22;44771;49.982;8.560;2022-10-16T14:54:50;18.60;99.90
58983;DHT22;44771;49.982;8.560;2022-10-16T15:00:17;18.50;99.90
58983;DHT22;44771;49.982;8.560;2022-10-16T15:05:34;18.50;99.90
58983;DHT22;44771;49.982;8.560;2022-10-16T15:10:47;18.50;99.90
58983;DHT22;44771;49.982;8.560;2022-10-16T16:30:24;17.30;99.90
58983;DHT22;44771;49.982;8.560;2022-10-16T16:35:37;17.20;99.90
58983;DHT22;44771;49.982;8.560;2022-10-16T16:40:42;17.20;99.90
58983;DHT22;44771;49.982;8.560;2022-10-16T16:45:45;17.30;99.90
58983;DHT22;44771;49.982;8.560;2022-10-16T16:50:47;17.10;99.90
58983;DHT22;44771;49.982;8.560;2022-10-16T16:55:49;17.00;99.90
58983;DHT22;44771;49.982;8.560;2022-10-16T18:09:33;15.30;99.90
58983;DHT22;44771;49.982;8.560;2022-10-16T18:14:35;15.20;99.90
58983;DHT22;44771;49.982;8.560;2022-10-16T18:41:33;14.60;99.90
58983;DHT22;44771;49.982;8.560;2022-10-16T18:46:36;14.40;99.90
58983;DHT22;44771;49.982;8.560;2022-10-16T18:52:21;14.30;99.90
58983;DHT22;44771;49.982;8.560;2022-10-16T19:50:59;13.20;99.90
58983;DHT22;44771;49.982;8.560;2022-10-16T19:56:13;13.20;99.90
58983;DHT22;44771;49.982;8.560;2022-10-16T20:33:29;12.70;99.90
58983;DHT22;44771;49.982;8.560;2022-10-16T20:54:42;12.50;99.90
58983;DHT22;44771;49.982;8.560;2022-10-16T20:59:44;12.40;99.90
58983;DHT22;44771;49.982;8.560;2022-10-16T21:04:46;12.30;99.90
58983;DHT22;44771;49.982;8.560;2022-10-16T21:09:49;12.30;99.90
58983;DHT22;44771;49.982;8.560;2022-10-16T21:14:51;12.10;99.90
58983;DHT22;44771;49.982;8.560;2022-10-16T21:20:18;12.20;99.90
58983;DHT22;44771;49.982;8.560;2022-10-16T21:25:22;12.20;99.90
58983;DHT22;44771;49.982;8.560;2022-10-16T21:30:24;12.10;99.90
58983;DHT22;44771;49.982;8.560;2022-10-16T21:35:26;12.20;99.90
58983;DHT22;44771;49.982;8.560;2022-10-16T21:40:29;12.20;99.90
58983;DHT22;44771;49.982;8.560;2022-10-16T21:45:32;12.10;99.90
58983;DHT22;44771;49.982;8.560;2022-10-16T21:50:34;12.00;99.90
58983;DHT22;44771;49.982;8.560;2022-10-16T21:55:37;11.80;99.90
58983;DHT22;44771;49.982;8.560;2022-10-16T22:00:39;11.70;99.90
58983;DHT22;44771;49.982;8.560;2022-10-16T22:05:41;11.70;99.90
58983;DHT22;44771;49.982;8.560;2022-10-16T22:10:44;11.50;99.90
58983;DHT22;44771;49.982;8.560;2022-10-16T22:15:49;11.40;99.90
58983;DHT22;44771;49.982;8.560;2022-10-16T22:20:50;11.40;99.90
58983;DHT22;44771;49.982;8.560;2022-10-16T22:25:59;11.30;99.90
